createdAt,value
2019-05-29T00:00:02.889Z,1.00
2019-05-29T00:02:31.373Z,1.32
2019-05-29T00:04:59.874Z,1.05
2019-05-29T00:07:28.324Z,1.07
2019-05-29T00:09:56.778Z,1.07
2019-05-29T00:12:25.209Z,1.17
2019-05-29T00:14:53.724Z,1.30
2019-05-29T00:17:22.201Z,1.10
2019-05-29T00:19:50.628Z,1.10
2019-05-29T00:22:19.078Z,1.25
2019-05-29T00:24:47.567Z,1.00
2019-05-29T00:27:16.030Z,1.40
2019-05-29T00:29:44.446Z,1.42
2019-05-29T00:32:13.511Z,1.82
2019-05-29T00:34:43.356Z,1.10
2019-05-29T00:37:12.507Z,1.43
2019-05-29T00:39:41.261Z,1.57
2019-05-29T00:42:11.002Z,1.32
2019-05-29T00:44:40.378Z,1.50
2019-05-29T00:47:11.567Z,1.45
2019-05-29T00:49:40.083Z,1.10
2019-05-29T00:54:57.526Z,1.87
2019-05-29T00:57:25.926Z,1.50
2019-05-29T00:59:57.333Z,1.80
2019-05-29T01:02:25.763Z,1.55
2019-05-29T01:04:54.178Z,1.87
2019-05-29T01:07:22.616Z,1.32
2019-05-29T01:09:51.034Z,1.70
2019-05-29T01:12:19.473Z,1.90
2019-05-29T01:14:50.566Z,1.65
2019-05-29T01:17:19.794Z,1.62
2019-05-29T01:19:48.345Z,1.47
2019-05-29T01:22:16.774Z,1.62
2019-05-29T01:24:45.186Z,1.98
2019-05-29T01:27:15.085Z,1.72
2019-05-29T01:29:43.718Z,1.37
2019-05-29T01:32:15.505Z,1.80
2019-05-29T01:34:43.981Z,1.80
2019-05-29T01:37:12.438Z,1.70
2019-05-29T01:39:41.249Z,1.70
2019-05-29T01:42:09.675Z,1.85
2019-05-29T01:44:38.208Z,1.80
2019-05-29T01:47:06.623Z,1.92
2019-05-29T01:49:35.233Z,1.87
2019-05-29T01:52:03.586Z,2.45
2019-05-29T01:54:32.028Z,1.85
2019-05-29T01:57:00.516Z,1.60
2019-05-29T01:59:29.005Z,1.60
2019-05-29T02:01:57.422Z,1.67
2019-05-29T02:04:25.859Z,1.90
2019-05-29T02:06:54.288Z,2.25
2019-05-29T02:09:22.717Z,1.85
2019-05-29T02:11:51.140Z,1.70
2019-05-29T02:14:20.835Z,1.70
2019-05-29T02:16:49.182Z,1.72
2019-05-29T02:19:17.807Z,1.50
2019-05-29T02:21:47.724Z,2.08
2019-05-29T02:24:17.016Z,2.10
2019-05-29T02:26:45.509Z,1.80
2019-05-29T02:29:13.949Z,2.30
2019-05-29T02:31:42.479Z,2.05
2019-05-29T02:34:10.877Z,2.35
2019-05-29T02:36:39.340Z,2.02
2019-05-29T02:39:08.252Z,2.30
2019-05-29T02:41:38.708Z,2.30
2019-05-29T02:44:06.859Z,2.22
2019-05-29T02:46:35.315Z,1.85
2019-05-29T02:49:03.752Z,2.27
2019-05-29T02:51:32.173Z,1.95
2019-05-29T02:54:00.635Z,1.80
2019-05-29T02:56:29.609Z,1.90
2019-05-29T02:58:59.253Z,2.08
2019-05-29T03:01:28.298Z,2.22
2019-05-29T03:03:58.034Z,2.10
2019-05-29T03:06:30.270Z,2.33
2019-05-29T03:08:58.792Z,2.47
2019-05-29T03:11:29.185Z,2.50
2019-05-29T03:13:57.449Z,2.30
2019-05-29T03:16:26.697Z,2.30
2019-05-29T03:18:56.043Z,3.08
2019-05-29T03:21:26.099Z,2.98
2019-05-29T03:23:54.611Z,2.62
2019-05-29T03:26:25.240Z,2.92
2019-05-29T03:28:53.251Z,2.65
2019-05-29T03:31:21.744Z,2.70
2019-05-29T03:33:51.179Z,2.77
2019-05-29T03:36:20.011Z,2.77
2019-05-29T03:38:48.512Z,2.80
2019-05-29T03:41:16.898Z,2.95
2019-05-29T03:43:45.300Z,2.98
2019-05-29T03:46:30.205Z,2.62
2019-05-29T03:48:44.327Z,2.20
2019-05-29T03:51:12.858Z,2.37
2019-05-29T03:53:41.288Z,3.02
2019-05-29T03:56:09.714Z,2.58
2019-05-29T03:58:38.140Z,2.62
2019-05-29T04:01:06.614Z,3.08
2019-05-29T04:03:36.081Z,3.27
2019-05-29T04:06:07.263Z,2.70
2019-05-29T04:08:37.617Z,4.10
2019-05-29T04:11:05.965Z,2.90
2019-05-29T04:13:36.003Z,2.80
2019-05-29T04:16:04.693Z,2.80
2019-05-29T04:18:35.832Z,3.05
2019-05-29T04:21:04.603Z,2.60
2019-05-29T04:23:36.282Z,4.08
2019-05-29T04:26:05.006Z,3.50
2019-05-29T04:28:34.850Z,2.98
2019-05-29T04:31:03.803Z,3.05
2019-05-29T04:33:34.930Z,3.05
2019-05-29T04:36:06.987Z,3.47
2019-05-29T04:38:36.212Z,3.55
2019-05-29T04:41:05.691Z,3.42
2019-05-29T04:43:35.424Z,3.50
2019-05-29T04:46:04.461Z,3.00
2019-05-29T04:48:34.063Z,4.05
2019-05-29T04:51:05.462Z,3.40
2019-05-29T04:56:02.790Z,3.75
2019-05-29T04:58:31.246Z,3.60
2019-05-29T05:00:59.801Z,3.40
2019-05-29T05:03:30.992Z,3.05
2019-05-29T05:05:59.623Z,3.47
2019-05-29T05:08:29.154Z,3.42
2019-05-29T05:10:57.904Z,3.40
2019-05-29T05:13:29.380Z,3.30
2019-05-29T05:16:01.728Z,3.47
2019-05-29T05:18:30.173Z,3.35
2019-05-29T05:20:59.811Z,3.70
2019-05-29T05:23:28.281Z,3.83
2019-05-29T05:25:56.841Z,3.37
2019-05-29T05:28:25.424Z,3.58
2019-05-29T05:30:55.312Z,3.85
2019-05-29T05:33:23.793Z,4.87
2019-05-29T05:35:52.220Z,3.92
2019-05-29T05:38:20.676Z,3.50
2019-05-29T05:40:50.735Z,3.85
2019-05-29T05:43:24.020Z,3.77
2019-05-29T05:45:49.360Z,4.15
2019-05-29T05:48:17.920Z,3.33
2019-05-29T05:50:46.394Z,3.80
2019-05-29T05:53:14.844Z,3.92
2019-05-29T05:55:43.266Z,3.50
2019-05-29T05:58:11.720Z,3.60
2019-05-29T06:00:40.188Z,3.90
2019-05-29T06:03:08.593Z,3.67
2019-05-29T06:05:38.232Z,3.22
2019-05-29T06:08:06.801Z,3.75
2019-05-29T06:10:38.102Z,3.50
2019-05-29T06:13:06.723Z,3.98
2019-05-29T06:15:36.410Z,3.20
2019-05-29T06:18:20.035Z,3.08
2019-05-29T06:20:35.142Z,3.33
2019-05-29T06:23:03.662Z,2.47
2019-05-29T06:25:33.905Z,3.25
2019-05-29T06:28:02.261Z,3.05
2019-05-29T06:30:30.696Z,3.50
2019-05-29T06:32:59.099Z,3.35
2019-05-29T06:35:27.633Z,2.70
2019-05-29T06:37:56.062Z,2.90
2019-05-29T06:40:40.162Z,2.33
2019-05-29T06:43:23.756Z,2.72
2019-05-29T06:45:52.769Z,2.10
2019-05-29T06:48:41.286Z,2.35
2019-05-29T06:50:57.580Z,2.40
2019-05-29T06:53:27.067Z,2.20
2019-05-29T06:55:56.850Z,1.80
2019-05-29T06:58:25.737Z,1.50
2019-05-29T07:00:54.169Z,1.90
2019-05-29T07:03:22.735Z,1.50
2019-05-29T07:05:52.862Z,1.50
2019-05-29T07:08:37.674Z,1.35
2019-05-29T07:10:53.205Z,1.25
2019-05-29T07:13:21.724Z,1.15
2019-05-29T07:15:50.114Z,1.30
2019-05-29T07:18:18.655Z,1.25
2019-05-29T07:20:47.119Z,1.40
2019-05-29T07:23:15.576Z,1.40
2019-05-29T07:25:45.452Z,1.17
2019-05-29T07:28:14.256Z,1.37
2019-05-29T07:30:48.359Z,1.20
2019-05-29T07:33:13.041Z,1.40
2019-05-29T07:35:43.593Z,1.10
2019-05-29T07:38:12.105Z,1.10
2019-05-29T07:40:42.420Z,0.80
2019-05-29T07:43:11.216Z,1.30
2019-05-29T07:45:40.586Z,1.25
2019-05-29T07:48:09.382Z,0.98
2019-05-29T07:50:40.082Z,0.85
2019-05-29T07:55:36.464Z,1.40
2019-05-29T07:58:04.874Z,1.10
2019-05-29T08:00:35.697Z,1.32
2019-05-29T08:03:03.422Z,1.27
2019-05-29T08:05:31.864Z,1.22
2019-05-29T08:08:00.281Z,1.27
2019-05-29T08:10:28.702Z,1.25
2019-05-29T08:12:57.232Z,1.30
2019-05-29T08:15:25.667Z,1.07
2019-05-29T08:17:54.974Z,1.00
2019-05-29T08:20:23.414Z,0.82
2019-05-29T08:22:51.910Z,1.00
2019-05-29T08:25:20.375Z,1.00
2019-05-29T08:27:52.219Z,1.22
2019-05-29T08:30:19.379Z,1.15
2019-05-29T08:32:49.110Z,1.10
2019-05-29T08:35:17.891Z,0.98
2019-05-29T08:37:47.014Z,0.80
2019-05-29T08:40:15.852Z,0.95
2019-05-29T08:42:45.225Z,0.90
2019-05-29T08:45:15.805Z,0.80
2019-05-29T08:47:45.855Z,1.10
2019-05-29T08:50:18.951Z,0.70
2019-05-29T08:52:47.979Z,1.52
2019-05-29T08:55:16.910Z,0.80
2019-05-29T08:57:46.338Z,1.02
2019-05-29T09:00:16.841Z,1.00
2019-05-29T09:02:46.501Z,1.10
2019-05-29T09:05:18.404Z,1.10
2019-05-29T09:07:48.356Z,0.70
2019-05-29T09:10:18.018Z,1.25
2019-05-29T09:12:54.894Z,0.80
2019-05-29T09:15:21.342Z,0.72
2019-05-29T09:17:48.482Z,0.65
2019-05-29T09:20:32.132Z,0.85
2019-05-29T09:22:47.339Z,0.78
2019-05-29T09:25:18.976Z,0.70
2019-05-29T09:27:49.228Z,0.62
2019-05-29T09:30:19.686Z,0.40
2019-05-29T09:32:50.895Z,0.80
2019-05-29T09:35:22.041Z,0.98
2019-05-29T09:37:51.547Z,0.80
2019-05-29T09:40:21.101Z,0.80
2019-05-29T09:42:49.684Z,0.72
2019-05-29T09:45:19.526Z,0.70
2019-05-29T09:47:48.195Z,1.22
2019-05-29T09:50:18.681Z,0.90
2019-05-29T09:52:50.481Z,0.70
2019-05-29T09:55:20.585Z,0.75
2019-05-29T09:57:49.016Z,0.70
2019-05-29T10:00:17.967Z,0.90
2019-05-29T10:02:47.236Z,0.90
2019-05-29T10:05:15.742Z,1.00
2019-05-29T10:07:44.181Z,1.07
2019-05-29T10:10:15.865Z,0.70
2019-05-29T10:12:44.313Z,0.62
2019-05-29T10:15:14.945Z,0.55
2019-05-29T10:17:43.426Z,0.55
2019-05-29T10:20:14.190Z,0.80
2019-05-29T10:22:42.669Z,0.70
2019-05-29T10:25:12.761Z,0.70
2019-05-29T10:27:41.218Z,0.78
2019-05-29T10:30:10.119Z,0.82
2019-05-29T10:32:39.052Z,0.80
2019-05-29T10:35:08.073Z,1.02
2019-05-29T10:37:36.505Z,0.82
2019-05-29T10:40:10.013Z,0.78
2019-05-29T10:42:38.512Z,0.60
2019-05-29T10:45:11.628Z,0.60
2019-05-29T10:47:40.059Z,0.70
2019-05-29T10:50:10.512Z,0.72
2019-05-29T10:52:39.070Z,0.75
2019-05-29T10:55:08.545Z,0.75
2019-05-29T10:57:37.033Z,0.88
2019-05-29T11:00:08.492Z,0.70
2019-05-29T11:02:38.421Z,0.82
2019-05-29T11:05:06.906Z,0.60
2019-05-29T11:07:39.978Z,0.80
2019-05-29T11:10:13.340Z,0.62
2019-05-29T11:12:40.035Z,0.78
2019-05-29T11:15:20.866Z,0.70
2019-05-29T11:17:40.800Z,0.80
2019-05-29T11:20:26.253Z,0.80
2019-05-29T11:22:47.559Z,0.60
2019-05-29T11:25:22.384Z,0.70
2019-05-29T11:27:46.612Z,0.60
2019-05-29T11:30:15.633Z,1.00
2019-05-29T11:32:47.295Z,0.70
2019-05-29T11:35:16.085Z,0.60
2019-05-29T11:37:44.510Z,0.80
2019-05-29T11:40:13.348Z,2.02
2019-05-29T11:42:41.772Z,0.60
2019-05-29T11:45:11.536Z,0.82
2019-05-29T11:47:39.978Z,0.60
2019-05-29T11:50:19.523Z,0.65
2019-05-29T11:52:45.040Z,0.78
2019-05-29T11:55:16.844Z,0.70
2019-05-29T11:57:47.435Z,0.50
2019-05-29T12:00:20.195Z,0.80
2019-05-29T12:02:49.133Z,1.32
2019-05-29T12:05:17.995Z,0.90
2019-05-29T12:07:46.429Z,0.93
2019-05-29T12:10:15.576Z,0.60
2019-05-29T12:12:44.027Z,0.60
2019-05-29T12:15:17.194Z,0.42
2019-05-29T12:17:44.551Z,0.60
2019-05-29T12:20:27.183Z,0.72
2019-05-29T12:23:07.043Z,0.70
2019-05-29T12:25:14.151Z,0.72
2019-05-29T12:27:42.585Z,0.80
2019-05-29T12:30:12.547Z,0.65
2019-05-29T12:32:41.003Z,0.75
2019-05-29T12:35:09.966Z,0.90
2019-05-29T12:37:38.476Z,0.60
2019-05-29T12:40:08.613Z,0.85
2019-05-29T12:42:37.006Z,0.55
2019-05-29T12:45:09.430Z,0.65
2019-05-29T12:47:37.932Z,0.70
2019-05-29T12:50:14.477Z,0.65
2019-05-29T12:52:42.912Z,0.70
2019-05-29T12:55:13.253Z,0.57
2019-05-29T12:57:42.466Z,0.78
2019-05-29T13:00:12.752Z,0.85
2019-05-29T13:02:43.528Z,0.50
2019-05-29T13:05:20.226Z,1.25
2019-05-29T13:07:45.793Z,0.60
2019-05-29T13:10:29.372Z,0.50
2019-05-29T13:12:45.558Z,0.50
2019-05-29T13:15:16.416Z,0.62
2019-05-29T13:17:45.579Z,0.40
2019-05-29T13:20:21.715Z,0.57
2019-05-29T13:22:47.416Z,0.55
2019-05-29T13:25:16.229Z,0.88
2019-05-29T13:27:44.639Z,0.57
2019-05-29T13:30:14.389Z,1.65
2019-05-29T13:32:43.251Z,0.80
2019-05-29T13:35:12.071Z,1.15
2019-05-29T13:37:40.494Z,0.82
2019-05-29T13:40:11.251Z,0.60
2019-05-29T13:45:17.941Z,0.95
2019-05-29T13:47:40.156Z,0.62
2019-05-29T13:50:12.135Z,0.60
2019-05-29T13:55:07.946Z,0.70
2019-05-29T13:57:39.573Z,0.57
2019-05-29T14:00:30.292Z,0.70
2019-05-29T14:02:39.524Z,0.70
2019-05-29T14:05:08.804Z,0.80
2019-05-29T14:07:38.191Z,0.80
2019-05-29T14:10:09.707Z,0.70
2019-05-29T14:12:41.366Z,0.40
2019-05-29T14:15:12.426Z,0.78
2019-05-29T14:17:42.565Z,1.02
2019-05-29T14:20:11.369Z,0.60
2019-05-29T14:22:39.784Z,1.07
2019-05-29T14:25:11.536Z,1.00
2019-05-29T14:27:41.637Z,0.88
2019-05-29T14:30:14.021Z,0.80
2019-05-29T14:32:43.703Z,0.53
2019-05-29T14:35:13.388Z,0.60
2019-05-29T14:37:41.940Z,0.93
2019-05-29T14:40:12.064Z,0.98
2019-05-29T14:42:42.326Z,0.85
2019-05-29T14:45:12.586Z,1.00
2019-05-29T14:47:41.075Z,0.70
2019-05-29T14:50:13.239Z,1.00
2019-05-29T14:52:41.708Z,1.02
2019-05-29T14:55:16.155Z,0.65
2019-05-29T14:57:40.585Z,0.95
2019-05-29T15:00:22.843Z,0.50
2019-05-29T15:02:43.212Z,0.80
2019-05-29T15:05:12.865Z,0.60
2019-05-29T15:07:42.343Z,0.72
2019-05-29T15:10:26.258Z,0.90
2019-05-29T15:12:42.975Z,0.75
2019-05-29T15:15:17.857Z,1.10
2019-05-29T15:17:42.521Z,0.80
2019-05-29T15:20:12.570Z,0.90
2019-05-29T15:22:41.438Z,0.70
2019-05-29T15:25:21.824Z,0.70
2019-05-29T15:27:43.772Z,0.60
2019-05-29T15:30:22.088Z,0.90
2019-05-29T15:32:45.383Z,0.90
2019-05-29T15:35:18.454Z,0.82
2019-05-29T15:37:45.258Z,0.80
2019-05-29T15:40:14.983Z,0.70
2019-05-29T15:42:43.490Z,0.85
2019-05-29T15:45:14.139Z,0.80
2019-05-29T15:47:43.401Z,0.80
2019-05-29T15:50:13.604Z,0.90
2019-05-29T15:52:42.996Z,0.90
2019-05-29T15:55:29.492Z,1.02
2019-05-29T15:57:43.343Z,0.70
2019-05-29T16:00:13.766Z,0.65
2019-05-29T16:02:42.273Z,0.53
2019-05-29T16:05:15.416Z,0.72
2019-05-29T16:07:43.950Z,1.60
2019-05-29T16:10:16.884Z,0.62
2019-05-29T16:12:44.692Z,0.55
2019-05-29T16:15:13.495Z,0.93
2019-05-29T16:17:42.002Z,1.20
2019-05-29T16:20:12.314Z,0.70
2019-05-29T16:22:40.984Z,1.00
2019-05-29T16:25:10.794Z,0.90
2019-05-29T16:27:39.451Z,0.62
2019-05-29T16:30:13.692Z,0.95
2019-05-29T16:32:42.171Z,0.60
2019-05-29T16:35:11.189Z,0.95
2019-05-29T16:37:39.547Z,0.85
2019-05-29T16:40:14.148Z,0.70
2019-05-29T16:42:42.784Z,1.05
2019-05-29T16:45:12.586Z,0.68
2019-05-29T16:47:40.996Z,0.70
2019-05-29T16:50:12.827Z,1.60
2019-05-29T16:52:41.464Z,0.85
2019-05-29T16:55:10.945Z,1.00
2019-05-29T16:57:39.396Z,1.05
2019-05-29T17:00:13.663Z,0.95
2019-05-29T17:02:45.162Z,0.70
2019-05-29T17:05:13.978Z,0.72
2019-05-29T17:07:42.350Z,0.90
2019-05-29T17:10:11.105Z,0.80
2019-05-29T17:12:39.528Z,1.12
2019-05-29T17:15:10.295Z,1.02
2019-05-29T17:20:08.253Z,0.98
2019-05-29T17:22:36.800Z,0.70
2019-05-29T17:25:07.197Z,0.85
2019-05-29T17:27:36.596Z,0.88
2019-05-29T17:30:09.533Z,1.07
2019-05-29T17:32:37.968Z,0.85
2019-05-29T17:35:08.594Z,1.10
2019-05-29T17:37:37.352Z,0.85
2019-05-29T17:40:07.919Z,1.55
2019-05-29T17:42:36.389Z,1.10
2019-05-29T17:45:07.813Z,1.25
2019-05-29T17:47:36.358Z,1.00
2019-05-29T17:50:11.353Z,0.90
2019-05-29T17:52:39.887Z,1.80
2019-05-29T17:55:09.496Z,1.00
2019-05-29T17:57:37.902Z,1.00
2019-05-29T18:00:13.574Z,1.05
2019-05-29T18:02:51.987Z,1.10
2019-05-29T18:05:13.525Z,0.93
2019-05-29T18:07:42.042Z,0.82
2019-05-29T18:10:11.899Z,1.15
2019-05-29T18:12:40.431Z,0.80
2019-05-29T18:15:10.296Z,2.70
2019-05-29T18:17:38.822Z,1.03
2019-05-29T18:20:08.129Z,0.85
2019-05-29T18:22:36.549Z,0.93
2019-05-29T18:25:09.001Z,1.77
2019-05-29T18:27:37.442Z,1.70
2019-05-29T18:30:08.449Z,1.92
2019-05-29T18:32:37.500Z,1.32
2019-05-29T18:35:07.816Z,0.90
2019-05-29T18:37:36.360Z,1.30
2019-05-29T18:40:12.297Z,1.02
2019-05-29T18:42:38.382Z,0.95
2019-05-29T18:45:19.613Z,1.22
2019-05-29T18:47:39.574Z,0.80
2019-05-29T18:50:10.483Z,1.42
2019-05-29T18:55:08.974Z,1.00
2019-05-29T18:57:37.427Z,0.90
2019-05-29T19:00:07.744Z,1.02
2019-05-29T19:02:36.177Z,1.27
2019-05-29T19:05:08.058Z,1.52
2019-05-29T19:07:36.450Z,2.30
2019-05-29T19:10:07.306Z,1.20
2019-05-29T19:15:04.805Z,1.05
2019-05-29T19:17:33.203Z,1.10
2019-05-29T19:20:03.417Z,2.25
2019-05-29T19:22:32.695Z,1.47
2019-05-29T19:25:01.375Z,1.15
2019-05-29T19:27:37.450Z,1.30
2019-05-29T19:30:00.024Z,1.20
2019-05-29T19:32:29.310Z,1.45
2019-05-29T19:34:57.943Z,1.40
2019-05-29T19:37:26.377Z,1.20
2019-05-29T19:39:54.851Z,1.20
2019-05-29T19:42:24.053Z,1.90
2019-05-29T19:44:52.648Z,1.35
2019-05-29T19:47:21.155Z,1.30
2019-05-29T19:49:49.651Z,0.95
2019-05-29T19:52:18.171Z,1.35
2019-05-29T19:54:46.663Z,1.00
2019-05-29T19:57:15.122Z,1.05
2019-05-29T19:59:43.739Z,1.10
2019-05-29T20:02:12.207Z,1.45
2019-05-29T20:04:42.170Z,0.70
2019-05-29T20:07:10.618Z,3.07
2019-05-29T20:09:39.098Z,1.20
2019-05-29T20:12:07.601Z,0.88
2019-05-29T20:14:40.898Z,0.70
2019-05-29T20:17:09.078Z,0.90
2019-05-29T20:19:40.780Z,0.93
2019-05-29T20:22:07.748Z,0.80
2019-05-29T20:24:36.910Z,1.00
2019-05-29T20:27:06.747Z,0.90
2019-05-29T20:29:36.369Z,0.90
2019-05-29T20:32:05.057Z,0.85
2019-05-29T20:34:34.645Z,1.20
2019-05-29T20:37:03.204Z,0.93
2019-05-29T20:39:32.856Z,1.05
2019-05-29T20:42:01.518Z,1.20
2019-05-29T20:44:32.620Z,0.90
2019-05-29T20:47:00.183Z,0.70
2019-05-29T20:49:28.666Z,0.60
2019-05-29T20:51:57.175Z,0.88
2019-05-29T20:54:27.646Z,1.12
2019-05-29T20:56:59.424Z,0.93
2019-05-29T20:59:29.525Z,0.88
2019-05-29T21:02:00.367Z,1.05
2019-05-29T21:06:56.965Z,1.00
2019-05-29T21:09:25.507Z,0.80
2019-05-29T21:11:55.433Z,0.80
2019-05-29T21:14:23.917Z,0.72
2019-05-29T21:16:52.330Z,0.80
2019-05-29T21:19:20.786Z,1.20
2019-05-29T21:21:49.203Z,0.90
2019-05-29T21:24:17.623Z,0.78
2019-05-29T21:26:46.041Z,0.82
2019-05-29T21:29:14.459Z,1.20
2019-05-29T21:31:43.715Z,1.15
2019-05-29T21:34:13.762Z,0.90
2019-05-29T21:36:42.429Z,1.00
2019-05-29T21:39:10.974Z,0.88
2019-05-29T21:41:40.425Z,1.20
2019-05-29T21:44:09.163Z,1.07
2019-05-29T21:46:38.826Z,1.00
2019-05-29T21:49:07.557Z,1.17
2019-05-29T21:51:37.292Z,1.10
2019-05-29T21:54:06.062Z,1.07
2019-05-29T21:56:37.443Z,0.85
2019-05-29T21:59:06.226Z,1.50
2019-05-29T22:01:35.080Z,1.35
2019-05-29T22:04:03.626Z,0.80
2019-05-29T22:06:33.708Z,0.93
2019-05-29T22:09:02.198Z,1.10
2019-05-29T22:11:30.679Z,0.85
2019-05-29T22:13:59.143Z,1.07
2019-05-29T22:16:27.723Z,0.90
2019-05-29T22:18:57.029Z,1.10
2019-05-29T22:21:26.415Z,1.15
2019-05-29T22:23:57.103Z,0.95
2019-05-29T22:26:27.794Z,1.50
2019-05-29T22:28:58.584Z,1.15
2019-05-29T22:31:26.541Z,1.27
2019-05-29T22:33:59.607Z,0.90
2019-05-29T22:36:28.091Z,1.20
2019-05-29T22:38:57.474Z,1.12
2019-05-29T22:41:25.984Z,1.12
2019-05-29T22:43:55.982Z,1.10
2019-05-29T22:46:24.492Z,1.05
2019-05-29T22:48:53.690Z,1.30
2019-05-29T22:51:23.707Z,0.90
2019-05-29T22:53:52.767Z,1.00
2019-05-29T22:56:22.489Z,1.00
2019-05-29T22:58:52.033Z,1.30
2019-05-29T23:01:20.579Z,1.12
2019-05-29T23:03:49.122Z,1.12
2019-05-29T23:06:19.472Z,1.05
2019-05-29T23:08:47.940Z,1.25
2019-05-29T23:11:16.504Z,1.20
2019-05-29T23:13:45.031Z,0.98
2019-05-29T23:16:13.508Z,1.27
2019-05-29T23:18:41.971Z,1.20
2019-05-29T23:21:10.552Z,0.85
2019-05-29T23:23:39.061Z,1.02
2019-05-29T23:26:07.586Z,1.12
2019-05-29T23:28:36.096Z,1.37
2019-05-29T23:31:05.104Z,1.10
2019-05-29T23:33:33.649Z,1.20
2019-05-29T23:36:03.249Z,1.00
2019-05-29T23:38:31.814Z,0.95
2019-05-29T23:41:01.548Z,1.50
2019-05-29T23:43:32.630Z,1.10
2019-05-29T23:46:02.414Z,1.17
2019-05-29T23:48:32.919Z,1.17
2019-05-29T23:51:03.839Z,1.00
2019-05-29T23:53:32.332Z,1.20
2019-05-29T23:56:01.838Z,0.82
2019-05-29T23:58:30.474Z,1.20
